Time;durP1;ratioP1;P1;durP2;ratioP2;P2;SDS_P1;SDS_P2;PMS_P1;PMS_P2;Temp;Humidity;BMP_temperature;BMP_pressure;BME280_temperature;BME280_humidity;BME280_pressure;Samples;Min_cycle;Max_cycle;Signal;HPM_P1;HPM_P2
2022/10/14 00:01:38;;;;;;;85.37;31.93;;;12.60;99.90;;;;;;5089978;28;20420;-77
2022/10/14 00:04:03;;;;;;;128.02;34.33;;;12.60;99.90;;;;;;5089289;28;20460;-77
2022/10/14 00:06:31;;;;;;;347.20;47.50;;;12.60;99.90;;;;;;5090830;28;20406;-77
2022/10/14 00:09:02;;;;;;;184.32;37.45;;;12.50;99.90;;;;;;5089691;28;20485;-76
2022/10/14 00:11:30;;;;;;;310.23;43.80;;;12.50;99.90;;;;;;5087979;28;20435;-77
2022/10/14 00:13:58;;;;;;;212.10;39.80;;;12.50;99.90;;;;;;5089800;28;20519;-77
2022/10/14 00:16:26;;;;;;;256.02;39.65;;;12.50;99.90;;;;;;5089081;28;20390;-76
2022/10/14 00:18:52;;;;;;;203.32;37.72;;;12.50;99.90;;;;;;5089474;28;20394;-77
2022/10/14 00:21:18;;;;;;;256.02;39.28;;;12.50;99.90;;;;;;5090728;28;20398;-77
2022/10/14 00:23:45;;;;;;;231.15;38.58;;;12.50;99.90;;;;;;5088323;28;20447;-76
2022/10/14 00:26:20;;;;;;;177.00;34.72;;;12.40;99.90;;;;;;5056851;28;20978;-76
2022/10/14 00:28:46;;;;;;;121.55;31.17;;;12.40;99.90;;;;;;5087988;28;20481;-77
2022/10/14 00:31:11;;;;;;;173.23;34.33;;;12.30;99.90;;;;;;5087547;28;20489;-77
2022/10/14 00:33:37;;;;;;;307.70;40.67;;;12.30;99.90;;;;;;5087111;28;20462;-77
2022/10/14 00:36:04;;;;;;;266.55;39.75;;;12.30;99.90;;;;;;5101224;28;20418;-77
2022/10/14 00:38:30;;;;;;;172.00;33.25;;;12.30;99.90;;;;;;5098665;28;20847;-77
2022/10/14 00:40:56;;;;;;;194.63;35.95;;;12.30;99.90;;;;;;5091379;28;20425;-77
2022/10/14 00:43:23;;;;;;;220.00;35.67;;;12.20;99.90;;;;;;5087447;28;20865;-77
2022/10/14 00:45:48;;;;;;;234.48;39.10;;;12.20;99.90;;;;;;5100750;28;20410;-77
2022/10/14 00:48:16;;;;;;;186.43;33.95;;;12.20;99.90;;;;;;5089083;28;20463;-77
2022/10/14 00:50:44;;;;;;;103.20;25.67;;;12.10;99.90;;;;;;5087999;28;20512;-77
2022/10/14 00:53:12;;;;;;;127.72;28.42;;;12.10;99.90;;;;;;5087565;28;20426;-77
2022/10/14 00:55:40;;;;;;;168.10;31.70;;;12.00;99.90;;;;;;5091869;28;20415;-77
2022/10/14 00:58:06;;;;;;;165.55;32.72;;;12.00;99.90;;;;;;5095834;28;20438;-77
2022/10/14 01:00:32;;;;;;;154.82;31.40;;;11.90;99.90;;;;;;5087759;28;20408;-77
2022/10/14 01:02:57;;;;;;;182.60;32.92;;;11.90;99.90;;;;;;5087193;28;20406;-77
2022/10/14 01:05:30;;;;;;;262.40;37.13;;;11.90;99.90;;;;;;5087339;28;20421;-77
2022/10/14 01:08:01;;;;;;;120.65;28.00;;;11.90;99.90;;;;;;5087175;28;20449;-77
2022/10/14 01:10:59;;;;;;;88.03;24.60;;;11.80;99.90;;;;;;5075740;28;20576;-77
2022/10/14 01:13:35;;;;;;;82.07;24.85;;;11.90;99.90;;;;;;5105225;28;20432;-77
2022/10/14 01:16:16;;;;;;;55.28;23.85;;;11.80;99.90;;;;;;5108255;28;20437;-76
2022/10/14 01:18:58;;;;;;;61.65;24.15;;;11.80;99.90;;;;;;5074945;28;20410;-77
2022/10/14 01:21:50;;;;;;;85.15;25.15;;;11.80;99.90;;;;;;5090594;28;20561;-77
2022/10/14 01:24:40;;;;;;;57.95;23.23;;;11.80;99.90;;;;;;5092670;28;20454;-77
2022/10/14 01:27:24;;;;;;;95.43;25.60;;;11.80;99.90;;;;;;5076081;28;20411;-77
2022/10/14 01:30:12;;;;;;;81.38;24.85;;;11.80;99.90;;;;;;5087016;28;20425;-77
2022/10/14 01:32:47;;;;;;;55.90;22.33;;;11.70;99.90;;;;;;5087070;28;20773;-77
2022/10/14 01:35:41;;;;;;;85.60;25.45;;;11.70;99.90;;;;;;5086577;28;20417;-77
2022/10/14 01:38:24;;;;;;;99.30;25.38;;;11.60;99.90;;;;;;5088027;28;20771;-77
2022/10/14 01:41:06;;;;;;;60.13;21.90;;;11.60;99.90;;;;;;5088224;28;20418;-77
2022/10/14 01:43:33;;;;;;;61.87;22.10;;;11.60;99.90;;;;;;5087199;28;20863;-77
2022/10/14 01:46:01;;;;;;;89.03;22.40;;;11.50;99.90;;;;;;5087148;28;20931;-77
2022/10/14 01:48:35;;;;;;;80.67;22.60;;;11.50;99.90;;;;;;5088028;28;20404;-77
2022/10/14 01:51:10;;;;;;;147.27;25.58;;;11.50;99.90;;;;;;5085799;28;20409;-77
2022/10/14 01:53:40;;;;;;;98.13;21.45;;;11.40;99.90;;;;;;5086831;28;20883;-77
2022/10/14 01:56:07;;;;;;;109.63;22.37;;;11.40;99.90;;;;;;5088180;28;20463;-77
2022/10/14 01:58:34;;;;;;;102.97;20.83;;;11.30;99.90;;;;;;5086686;28;20983;-77
2022/10/14 02:01:05;;;;;;;92.78;20.92;;;11.30;99.90;;;;;;5086744;28;20405;-77
2022/10/14 02:03:45;;;;;;;92.85;20.65;;;11.20;99.90;;;;;;5086181;28;20909;-76
2022/10/14 02:06:16;;;;;;;59.72;15.48;;;11.20;99.90;;;;;;5086685;28;20489;-77
2022/10/14 02:09:07;;;;;;;82.35;17.92;;;11.10;99.90;;;;;;5070568;28;20919;-77
2022/10/14 02:11:45;;;;;;;119.75;21.70;;;11.10;99.90;;;;;;5082602;28;20820;-77
2022/10/14 02:14:30;;;;;;;64.20;16.75;;;11.10;99.90;;;;;;5086676;28;20834;-77
2022/10/14 02:17:19;;;;;;;59.90;16.15;;;11.00;99.90;;;;;;5086946;28;20413;-77
2022/10/14 02:19:54;;;;;;;44.00;13.65;;;10.90;99.90;;;;;;5086391;28;20414;-77
2022/10/14 02:22:28;;;;;;;51.70;14.57;;;10.90;99.90;;;;;;5086601;28;21013;-77
2022/10/14 02:24:58;;;;;;;81.97;17.55;;;10.90;99.90;;;;;;5082869;28;20461;-77
2022/10/14 02:27:27;;;;;;;62.42;16.88;;;10.90;99.90;;;;;;5061897;28;20413;-77
2022/10/14 02:29:54;;;;;;;52.97;15.25;;;10.90;99.90;;;;;;5086530;28;20410;-79
2022/10/14 02:32:22;;;;;;;35.10;14.10;;;10.80;99.90;;;;;;5089458;28;20406;-79
2022/10/14 02:34:51;;;;;;;64.28;15.82;;;10.80;99.90;;;;;;5089195;28;20517;-77
2022/10/14 02:37:19;;;;;;;127.05;20.27;;;10.70;99.90;;;;;;5091939;28;20410;-77
2022/10/14 02:39:57;;;;;;;46.80;15.45;;;10.70;99.90;;;;;;5078602;28;20410;-77
2022/10/14 02:42:23;;;;;;;53.28;15.93;;;10.70;99.90;;;;;;5090737;28;20425;-77
2022/10/14 02:44:59;;;;;;;56.45;15.98;;;10.60;99.90;;;;;;5090092;28;20434;-77
2022/10/14 02:47:25;;;;;;;52.25;16.35;;;10.60;99.90;;;;;;5088972;28;20407;-77
2022/10/14 02:49:50;;;;;;;48.58;15.75;;;10.60;99.90;;;;;;5088686;28;20780;-77
2022/10/14 02:52:16;;;;;;;48.63;15.40;;;10.60;99.90;;;;;;5090988;28;20398;-77
2022/10/14 02:54:42;;;;;;;28.13;12.43;;;10.50;99.90;;;;;;5091507;28;20405;-77
2022/10/14 02:57:08;;;;;;;32.92;12.88;;;10.50;99.90;;;;;;5102219;28;20816;-77
2022/10/14 02:59:33;;;;;;;50.17;15.03;;;10.40;99.90;;;;;;5096671;28;20408;-77
2022/10/14 03:01:59;;;;;;;31.77;12.50;;;10.40;99.90;;;;;;5098845;28;20506;-77
2022/10/14 03:04:25;;;;;;;68.10;16.35;;;10.40;99.90;;;;;;5088986;28;20399;-77
2022/10/14 03:06:51;;;;;;;34.50;12.70;;;10.30;99.90;;;;;;5097652;28;20460;-77
2022/10/14 03:09:16;;;;;;;55.20;14.40;;;10.30;99.90;;;;;;5089768;28;20489;-78
2022/10/14 03:11:42;;;;;;;44.70;13.77;;;10.30;99.90;;;;;;5123726;27;20512;-77
2022/10/14 03:14:07;;;;;;;34.13;11.38;;;10.30;99.90;;;;;;5090074;28;20711;-77
2022/10/14 03:16:33;;;;;;;49.23;12.93;;;10.30;99.90;;;;;;5091122;28;20902;-77
2022/10/14 03:18:58;;;;;;;68.70;15.10;;;10.20;99.90;;;;;;5090532;28;20436;-77
2022/10/14 03:21:24;;;;;;;40.33;12.52;;;10.20;99.90;;;;;;5090930;28;20413;-77
2022/10/14 03:23:49;;;;;;;42.20;11.83;;;10.20;99.90;;;;;;5099032;28;20976;-77
2022/10/14 03:26:15;;;;;;;48.58;13.43;;;10.20;99.90;;;;;;5091064;28;20425;-77
2022/10/14 03:28:41;;;;;;;72.47;15.20;;;10.20;99.90;;;;;;5089741;28;20494;-77
2022/10/14 03:31:07;;;;;;;70.18;15.55;;;10.20;99.90;;;;;;5090201;28;20409;-77
2022/10/14 03:33:32;;;;;;;73.07;15.57;;;10.20;99.90;;;;;;5088839;28;20537;-77
2022/10/14 03:35:58;;;;;;;75.53;14.70;;;10.20;99.90;;;;;;5089846;28;20402;-77
2022/10/14 03:38:23;;;;;;;67.57;14.87;;;10.20;99.90;;;;;;5089948;28;20422;-77
2022/10/14 03:40:49;;;;;;;41.77;13.10;;;10.10;99.90;;;;;;5090081;28;20752;-77
2022/10/14 03:43:15;;;;;;;31.60;12.67;;;10.10;99.90;;;;;;5088016;28;20402;-77
2022/10/14 03:45:42;;;;;;;42.97;12.70;;;10.10;99.90;;;;;;5090262;28;20394;-77
2022/10/14 03:48:07;;;;;;;58.25;14.63;;;10.00;99.90;;;;;;5090300;28;20437;-77
2022/10/14 03:50:33;;;;;;;52.00;14.03;;;10.10;99.90;;;;;;5088918;28;20902;-77
2022/10/14 03:52:59;;;;;;;56.30;14.63;;;10.00;99.90;;;;;;5088364;28;20440;-77
2022/10/14 03:55:24;;;;;;;57.70;15.43;;;10.00;99.90;;;;;;5089135;28;20409;-77
2022/10/14 03:57:50;;;;;;;36.67;13.75;;;10.00;99.90;;;;;;5078553;28;20403;-77
2022/10/14 04:00:16;;;;;;;49.97;13.07;;;10.00;99.90;;;;;;5090166;28;20406;-77
2022/10/14 04:02:42;;;;;;;54.90;11.87;;;10.00;99.90;;;;;;5088034;28;20409;-77
2022/10/14 04:05:09;;;;;;;60.00;12.30;;;10.00;99.90;;;;;;5088668;28;20406;-77
2022/10/14 04:07:34;;;;;;;67.30;12.13;;;10.00;99.90;;;;;;5088487;28;20477;-77
2022/10/14 04:10:00;;;;;;;54.20;13.00;;;10.00;99.90;;;;;;5089833;28;20890;-77
2022/10/14 04:12:26;;;;;;;63.42;13.45;;;10.00;99.90;;;;;;5089629;28;20802;-77
2022/10/14 04:14:55;;;;;;;93.37;15.60;;;10.00;99.90;;;;;;5088214;28;20769;-77
2022/10/14 04:17:21;;;;;;;66.88;13.52;;;10.00;99.90;;;;;;5088645;28;20401;-77
2022/10/14 04:19:46;;;;;;;55.50;12.50;;;10.00;99.90;;;;;;5088049;28;20402;-77
2022/10/14 04:22:12;;;;;;;57.25;12.48;;;10.00;99.90;;;;;;5088087;28;20894;-77
2022/10/14 04:24:38;;;;;;;81.68;14.77;;;10.00;99.90;;;;;;5088017;28;20481;-77
2022/10/14 04:27:03;;;;;;;61.37;14.73;;;10.00;99.90;;;;;;5089332;28;20505;-77
2022/10/14 04:29:29;;;;;;;52.60;14.53;;;10.10;99.90;;;;;;5090550;28;20402;-77
2022/10/14 04:31:54;;;;;;;45.35;12.98;;;10.00;99.90;;;;;;5089160;28;20886;-77
2022/10/14 04:34:20;;;;;;;25.27;11.77;;;10.10;99.90;;;;;;5088827;28;20425;-77
2022/10/14 04:36:46;;;;;;;38.42;11.18;;;10.10;99.90;;;;;;5088068;28;20406;-77
2022/10/14 04:39:11;;;;;;;39.07;11.13;;;10.10;99.90;;;;;;5088143;28;20406;-77
2022/10/14 04:41:37;;;;;;;35.80;11.07;;;10.10;99.90;;;;;;5088019;28;20401;-77
2022/10/14 04:44:03;;;;;;;21.73;10.23;;;10.20;99.90;;;;;;5071126;28;20402;-77
2022/10/14 04:46:30;;;;;;;26.67;10.32;;;10.20;99.90;;;;;;5087492;28;20402;-77
2022/10/14 04:48:55;;;;;;;30.65;10.43;;;10.20;99.90;;;;;;5088529;28;20492;-77
2022/10/14 04:51:21;;;;;;;44.10;11.83;;;10.20;99.90;;;;;;5088106;28;20486;-77
2022/10/14 04:53:47;;;;;;;30.63;11.18;;;10.20;99.90;;;;;;5086880;28;20426;-77
2022/10/14 04:56:12;;;;;;;40.97;12.13;;;10.20;99.90;;;;;;5087227;28;20402;-77
2022/10/14 04:58:38;;;;;;;28.87;10.67;;;10.30;99.90;;;;;;5079155;28;20466;-77
2022/10/14 05:01:04;;;;;;;42.53;11.38;;;10.30;99.90;;;;;;5087480;28;20402;-77
2022/10/14 05:03:29;;;;;;;45.50;19.67;;;10.30;99.90;;;;;;5087296;28;20402;-77
2022/10/14 05:05:55;;;;;;;29.90;11.60;;;10.30;99.90;;;;;;5087660;28;20414;-77
2022/10/14 05:08:20;;;;;;;34.55;11.90;;;10.40;99.90;;;;;;5087453;28;20482;-77
2022/10/14 05:10:48;;;;;;;27.37;10.33;;;10.30;99.90;;;;;;5087228;28;20760;-77
2022/10/14 05:13:14;;;;;;;25.77;11.52;;;10.30;99.90;;;;;;5100335;28;20467;-77
2022/10/14 05:15:40;;;;;;;24.40;11.60;;;10.40;99.90;;;;;;5081791;28;20412;-77
2022/10/14 05:18:06;;;;;;;19.83;10.68;;;10.40;99.90;;;;;;5094918;28;20401;-77
2022/10/14 05:20:31;;;;;;;24.20;11.57;;;10.40;99.90;;;;;;5087329;28;20402;-77
2022/10/14 05:22:57;;;;;;;32.30;11.70;;;10.40;99.90;;;;;;5088410;28;20941;-77
2022/10/14 05:25:22;;;;;;;31.23;11.90;;;10.50;99.90;;;;;;5088451;28;20414;-77
2022/10/14 05:27:48;;;;;;;31.17;12.30;;;10.50;99.90;;;;;;5087414;28;20843;-77
2022/10/14 05:30:14;;;;;;;40.30;13.03;;;10.50;99.90;;;;;;5074065;28;20421;-78
2022/10/14 05:32:39;;;;;;;50.30;13.35;;;10.50;99.90;;;;;;5086911;28;20430;-77
2022/10/14 05:35:05;;;;;;;46.93;14.20;;;10.50;99.90;;;;;;5086423;28;20406;-73
2022/10/14 05:37:31;;;;;;;37.92;13.25;;;10.50;99.90;;;;;;5087291;28;20402;-72
2022/10/14 05:39:57;;;;;;;54.87;15.17;;;10.60;99.90;;;;;;5073901;28;20398;-75
2022/10/14 05:42:22;;;;;;;62.35;15.70;;;10.60;99.90;;;;;;5084120;28;20435;-76
2022/10/14 05:44:48;;;;;;;43.20;14.23;;;10.60;99.90;;;;;;5083470;28;20764;-75
2022/10/14 05:47:14;;;;;;;79.13;16.90;;;10.60;99.90;;;;;;5086531;28;20475;-76
2022/10/14 05:49:39;;;;;;;67.03;15.55;;;10.60;99.90;;;;;;5083755;28;20424;-76
2022/10/14 05:52:05;;;;;;;62.33;14.50;;;10.60;99.90;;;;;;5087918;28;20406;-71
2022/10/14 05:54:31;;;;;;;55.17;14.95;;;10.70;99.90;;;;;;5086862;28;20849;-77
2022/10/14 05:56:56;;;;;;;112.77;17.00;;;10.60;99.90;;;;;;5086225;28;20418;-77
2022/10/14 05:59:22;;;;;;;63.17;14.07;;;10.70;99.90;;;;;;5094640;28;20405;-76
2022/10/14 06:01:47;;;;;;;103.43;18.43;;;10.70;99.90;;;;;;5087176;28;20406;-77
2022/10/14 06:04:18;;;;;;;86.18;15.65;;;10.70;99.90;;;;;;5087631;28;20406;-77
2022/10/14 06:06:44;;;;;;;96.30;15.02;;;10.70;99.90;;;;;;5090461;28;20406;-77
2022/10/14 06:09:09;;;;;;;83.38;13.77;;;10.70;99.90;;;;;;5090587;28;20413;-77
2022/10/14 06:11:35;;;;;;;96.07;14.73;;;10.70;99.90;;;;;;5091103;28;20413;-77
2022/10/14 06:14:00;;;;;;;147.45;19.63;;;10.70;99.90;;;;;;5086790;28;20917;-77
2022/10/14 06:16:26;;;;;;;82.27;14.37;;;10.70;99.90;;;;;;5091899;28;20481;-77
2022/10/14 06:18:51;;;;;;;110.10;17.33;;;10.70;99.90;;;;;;5073667;28;20917;-77
2022/10/14 06:21:17;;;;;;;117.95;18.05;;;10.70;99.90;;;;;;5092028;28;20398;-77
2022/10/14 06:23:42;;;;;;;107.33;16.97;;;10.70;99.90;;;;;;5091407;28;20405;-77
2022/10/14 06:26:08;;;;;;;60.17;11.63;;;10.70;99.90;;;;;;5091551;28;20402;-78
2022/10/14 06:28:35;;;;;;;99.67;12.33;;;10.70;99.90;;;;;;5091794;28;20410;-78
2022/10/14 06:31:01;;;;;;;121.68;15.07;;;10.80;99.90;;;;;;5090021;28;20411;-78
2022/10/14 06:33:28;;;;;;;70.13;12.00;;;10.80;99.90;;;;;;5091308;28;20426;-78
2022/10/14 06:35:54;;;;;;;117.82;15.10;;;10.70;99.90;;;;;;5090014;28;20410;-78
2022/10/14 06:38:20;;;;;;;96.43;14.15;;;10.70;99.90;;;;;;5078162;28;21099;-78
2022/10/14 06:40:48;;;;;;;76.63;13.07;;;10.70;99.90;;;;;;5073609;28;20395;-77
2022/10/14 06:43:14;;;;;;;71.97;12.70;;;10.80;99.90;;;;;;5084488;28;20411;-78
2022/10/14 06:45:39;;;;;;;65.18;13.45;;;10.80;99.90;;;;;;5109978;28;20392;-78
2022/10/14 06:48:05;;;;;;;105.30;17.17;;;10.80;99.90;;;;;;5083425;28;21156;-78
2022/10/14 06:50:31;;;;;;;86.82;15.73;;;10.80;99.90;;;;;;5082405;28;20396;-78
2022/10/14 06:52:56;;;;;;;93.60;16.52;;;10.80;99.90;;;;;;5089830;28;20432;-77
2022/10/14 06:55:22;;;;;;;101.13;16.90;;;10.80;99.90;;;;;;5106955;28;20406;-78
2022/10/14 06:57:47;;;;;;;116.65;17.98;;;10.80;99.90;;;;;;5096264;28;20401;-78
2022/10/14 07:00:13;;;;;;;138.00;18.57;;;10.80;99.90;;;;;;5090970;28;20397;-77
2022/10/14 07:02:39;;;;;;;117.65;17.70;;;10.80;99.90;;;;;;5089417;28;20429;-78
2022/10/14 07:05:05;;;;;;;101.77;16.67;;;10.80;99.90;;;;;;5123219;27;20760;-78
2022/10/14 07:07:31;;;;;;;108.82;17.33;;;10.90;99.90;;;;;;5090198;28;21162;-78
2022/10/14 07:09:57;;;;;;;96.77;16.63;;;10.90;99.90;;;;;;5089467;28;20402;-78
2022/10/14 07:12:24;;;;;;;87.70;16.87;;;10.90;99.90;;;;;;5090196;28;20498;-78
2022/10/14 07:14:49;;;;;;;99.65;16.58;;;11.00;99.90;;;;;;5090057;28;20421;-78
2022/10/14 07:17:15;;;;;;;95.97;16.53;;;11.00;99.90;;;;;;5090205;28;20409;-78
2022/10/14 07:19:40;;;;;;;82.53;15.87;;;11.00;99.90;;;;;;5090016;28;20406;-78
2022/10/14 07:22:06;;;;;;;89.70;15.40;;;11.00;99.90;;;;;;5090081;28;20409;-78
2022/10/14 07:24:32;;;;;;;90.17;17.17;;;11.10;99.90;;;;;;5090689;28;20406;-78
2022/10/14 07:26:57;;;;;;;59.63;15.02;;;11.10;99.90;;;;;;5088948;28;20413;-78
2022/10/14 07:29:23;;;;;;;94.17;16.90;;;11.10;99.90;;;;;;5089657;28;20814;-78
2022/10/14 07:31:49;;;;;;;128.98;20.10;;;11.20;99.90;;;;;;5089767;28;20398;-78
2022/10/14 07:34:14;;;;;;;114.50;19.50;;;11.20;99.90;;;;;;5088161;28;20486;-78
2022/10/14 07:36:40;;;;;;;82.47;19.03;;;11.20;99.90;;;;;;5088885;28;20464;-78
2022/10/14 07:39:06;;;;;;;65.30;17.88;;;11.20;99.90;;;;;;5088949;28;20402;-78
2022/10/14 07:41:32;;;;;;;98.10;18.93;;;11.20;99.90;;;;;;5089805;28;20434;-78
2022/10/14 07:44:01;;;;;;;94.47;19.98;;;11.30;99.90;;;;;;5089103;28;20410;-78
2022/10/14 07:46:28;;;;;;;77.70;18.00;;;11.30;99.90;;;;;;5088967;28;20413;-78
2022/10/14 07:48:55;;;;;;;90.70;20.13;;;11.30;99.90;;;;;;5088991;28;20433;-78
2022/10/14 07:51:21;;;;;;;65.97;17.67;;;11.30;99.90;;;;;;5088401;28;20402;-78
2022/10/14 07:53:47;;;;;;;58.92;19.25;;;11.40;99.90;;;;;;5087350;28;20430;-77
2022/10/14 07:56:13;;;;;;;74.72;20.42;;;11.40;99.90;;;;;;5089950;28;20497;-78
2022/10/14 07:58:39;;;;;;;79.53;21.67;;;11.40;99.90;;;;;;5089618;28;20489;-78
2022/10/14 08:01:04;;;;;;;76.67;21.93;;;11.40;99.90;;;;;;5103051;28;20398;-78
2022/10/14 08:03:30;;;;;;;74.40;20.85;;;11.40;99.90;;;;;;5088328;28;20832;-77
2022/10/14 08:06:03;;;;;;;77.80;22.83;;;11.40;99.90;;;;;;5090001;28;20517;-78
2022/10/14 08:08:29;;;;;;;71.10;21.23;;;11.50;99.90;;;;;;5088583;28;20908;-78
2022/10/14 08:11:04;;;;;;;69.10;20.97;;;11.50;99.90;;;;;;5088461;28;20452;-78
2022/10/14 08:13:30;;;;;;;71.35;22.42;;;11.70;99.90;;;;;;5087904;28;20430;-78
2022/10/14 08:15:56;;;;;;;69.05;21.23;;;11.70;99.90;;;;;;5088496;28;20768;-78
2022/10/14 08:18:22;;;;;;;71.07;21.55;;;11.70;99.90;;;;;;5087978;28;20407;-78
2022/10/14 08:20:48;;;;;;;62.83;20.75;;;11.80;99.90;;;;;;5088425;28;20458;-78
2022/10/14 08:23:13;;;;;;;64.03;22.47;;;11.70;99.90;;;;;;5088395;28;20405;-78
2022/10/14 08:25:39;;;;;;;65.73;21.33;;;11.70;99.90;;;;;;5088253;28;20402;-78
2022/10/14 08:28:05;;;;;;;59.17;20.40;;;11.80;99.90;;;;;;5070601;28;20406;-78
2022/10/14 08:30:30;;;;;;;59.23;22.00;;;11.80;99.90;;;;;;5097289;28;20396;-78
2022/10/14 08:32:56;;;;;;;56.88;20.80;;;11.90;99.90;;;;;;5093295;28;20475;-78
2022/10/14 08:35:22;;;;;;;60.93;21.43;;;11.90;99.90;;;;;;5088981;28;20492;-78
2022/10/14 08:37:58;;;;;;;54.15;21.10;;;11.90;99.90;;;;;;5089355;28;20471;-78
2022/10/14 08:40:26;;;;;;;53.13;21.92;;;12.00;99.90;;;;;;5087474;28;20417;-78
2022/10/14 08:43:14;;;;;;;56.33;22.42;;;12.00;99.90;;;;;;5089307;28;20398;-78
2022/10/14 08:45:48;;;;;;;51.30;21.90;;;12.00;99.90;;;;;;5071367;28;20402;-78
2022/10/14 08:48:22;;;;;;;51.00;21.85;;;12.00;99.90;;;;;;5081289;28;20446;-78
2022/10/14 08:51:01;;;;;;;52.33;22.98;;;12.10;99.90;;;;;;5085268;28;20410;-78
2022/10/14 08:53:34;;;;;;;55.53;23.58;;;12.10;99.90;;;;;;5088298;28;20429;-78
2022/10/14 08:56:01;;;;;;;56.77;24.77;;;12.10;99.90;;;;;;5100363;28;20900;-78
2022/10/14 08:58:34;;;;;;;57.03;24.97;;;12.10;99.90;;;;;;5095875;28;20412;-78
2022/10/14 09:01:29;;;;;;;53.95;23.92;;;12.10;99.90;;;;;;5087560;28;20417;-78
2022/10/14 09:04:06;;;;;;;58.50;25.40;;;12.10;99.90;;;;;;5084970;28;20516;-78
2022/10/14 09:06:38;;;;;;;52.67;23.63;;;12.10;99.90;;;;;;5087387;28;20799;-78
2022/10/14 09:09:27;;;;;;;52.10;24.40;;;12.10;99.90;;;;;;5088633;28;20398;-78
2022/10/14 09:11:59;;;;;;;55.70;24.73;;;12.10;99.90;;;;;;5086977;28;20414;-78
2022/10/14 09:14:30;;;;;;;44.80;22.13;;;12.20;99.90;;;;;;5088702;28;20422;-78
2022/10/14 09:17:05;;;;;;;45.15;21.48;;;12.30;99.90;;;;;;5101023;28;21208;-78
2022/10/14 09:19:34;;;;;;;39.53;20.50;;;12.30;99.90;;;;;;5087055;28;20402;-78
2022/10/14 09:22:01;;;;;;;40.17;20.60;;;12.40;99.90;;;;;;5091818;28;20496;-78
2022/10/14 09:24:34;;;;;;;38.85;20.75;;;12.50;99.90;;;;;;5096206;28;20402;-78
2022/10/14 09:27:06;;;;;;;38.58;21.20;;;12.60;99.90;;;;;;5087854;28;20406;-79
2022/10/14 09:29:38;;;;;;;39.47;21.30;;;12.70;99.90;;;;;;5101550;28;20477;-78
2022/10/14 09:32:15;;;;;;;33.47;19.15;;;12.90;99.90;;;;;;5088323;28;20501;-78
2022/10/14 09:34:47;;;;;;;32.17;18.77;;;13.00;99.90;;;;;;5089292;28;20468;-78
2022/10/14 09:37:31;;;;;;;31.75;18.77;;;13.20;99.90;;;;;;5086141;28;20408;-78
2022/10/14 09:40:06;;;;;;;31.58;18.30;;;13.20;99.90;;;;;;5086029;28;20410;-78
2022/10/14 09:42:43;;;;;;;30.15;17.88;;;13.30;99.90;;;;;;5088606;28;20409;-78
2022/10/14 09:45:12;;;;;;;33.60;18.13;;;13.10;99.90;;;;;;5070190;28;20722;-78
2022/10/14 09:48:09;;;;;;;28.58;17.70;;;13.20;99.90;;;;;;5088186;28;20434;-78
2022/10/14 09:50:43;;;;;;;29.17;17.75;;;13.20;99.90;;;;;;5082519;28;20957;-78
2022/10/14 09:53:31;;;;;;;28.70;17.10;;;13.30;99.90;;;;;;5086693;28;20505;-78
2022/10/14 09:56:02;;;;;;;27.05;16.55;;;13.50;99.90;;;;;;5086990;28;20410;-78
2022/10/14 09:58:54;;;;;;;27.13;16.95;;;13.50;99.90;;;;;;5095007;28;20493;-78
2022/10/14 10:01:35;;;;;;;26.63;17.08;;;13.50;99.90;;;;;;5069364;28;20417;-78
2022/10/14 10:04:26;;;;;;;29.77;17.55;;;13.60;99.90;;;;;;5100186;28;20578;-78
2022/10/14 10:06:54;;;;;;;26.77;16.85;;;13.60;99.90;;;;;;5087558;28;20405;-78
2022/10/14 10:09:20;;;;;;;26.52;16.75;;;13.60;99.90;;;;;;5088018;28;20397;-78
2022/10/14 10:11:46;;;;;;;27.38;17.02;;;13.80;99.90;;;;;;5086762;28;20906;-78
2022/10/14 10:14:19;;;;;;;25.85;17.08;;;13.80;99.90;;;;;;5087828;28;20529;-78
2022/10/14 10:16:46;;;;;;;27.15;16.63;;;13.80;99.90;;;;;;5086586;28;20412;-78
2022/10/14 10:19:28;;;;;;;25.63;17.33;;;13.80;99.90;;;;;;5087460;28;20394;-78
2022/10/14 10:21:54;;;;;;;26.38;17.05;;;13.80;99.90;;;;;;5086642;28;20414;-78
2022/10/14 10:24:22;;;;;;;26.80;17.75;;;13.80;99.90;;;;;;5097561;28;20400;-78
2022/10/14 10:26:48;;;;;;;28.55;18.15;;;13.80;99.90;;;;;;5071760;28;20950;-78
2022/10/14 10:29:33;;;;;;;27.48;18.23;;;13.80;99.90;;;;;;5086294;28;21377;-78
2022/10/14 10:32:15;;;;;;;28.85;18.17;;;13.80;99.90;;;;;;5086164;28;20427;-78
2022/10/14 10:35:01;;;;;;;28.20;18.17;;;13.70;99.90;;;;;;5087497;28;20434;-78
2022/10/14 10:37:34;;;;;;;28.42;18.52;;;13.70;99.90;;;;;;5086295;28;20450;-78
2022/10/14 10:40:23;;;;;;;27.85;18.15;;;13.70;99.90;;;;;;5086394;28;20441;-78
2022/10/14 10:43:12;;;;;;;30.88;19.30;;;13.60;99.90;;;;;;5086173;28;20438;-78
2022/10/14 10:45:44;;;;;;;31.55;19.02;;;13.70;99.90;;;;;;5086245;28;20484;-78
2022/10/14 10:48:28;;;;;;;29.80;20.08;;;13.60;99.90;;;;;;5086000;28;20606;-78
2022/10/14 10:51:06;;;;;;;31.20;19.90;;;13.60;99.90;;;;;;5085973;28;20985;-78
2022/10/14 10:53:59;;;;;;;28.40;19.02;;;13.60;99.90;;;;;;5088999;28;20430;-78
2022/10/14 10:56:37;;;;;;;31.48;19.42;;;13.60;99.90;;;;;;5078610;28;20398;-78
2022/10/14 10:59:18;;;;;;;30.60;18.35;;;13.60;99.90;;;;;;5097885;28;20432;-78
2022/10/14 11:02:20;;;;;;;29.27;18.77;;;13.60;99.90;;;;;;5090292;28;20410;-78
2022/10/14 11:05:07;;;;;;;31.40;19.20;;;13.60;99.90;;;;;;5114371;27;20496;-78
2022/10/14 11:13:50;;;;;;;33.92;20.05;;;13.70;99.90;;;;;;5093597;28;20428;-78
2022/10/14 11:16:35;;;;;;;31.50;19.00;;;13.70;99.90;;;;;;5144157;27;20416;-78
2022/10/14 11:19:09;;;;;;;33.45;18.77;;;13.70;99.90;;;;;;5077458;28;20417;-78
2022/10/14 11:21:43;;;;;;;33.88;18.42;;;13.70;99.90;;;;;;5089387;28;20428;-78
2022/10/14 11:24:53;;;;;;;34.70;19.60;;;13.80;99.90;;;;;;5090710;28;20442;-78
2022/10/14 11:27:44;;;;;;;32.65;18.17;;;13.80;99.90;;;;;;5089474;28;20417;-78
2022/10/14 11:30:14;;;;;;;33.27;18.43;;;13.80;99.90;;;;;;5090149;28;20922;-78
2022/10/14 11:33:17;;;;;;;32.08;18.48;;;13.90;99.90;;;;;;5102576;28;20436;-78
2022/10/14 11:36:07;;;;;;;34.60;18.15;;;14.00;99.90;;;;;;5090164;28;20406;-78
2022/10/14 11:39:09;;;;;;;31.70;17.55;;;14.00;99.90;;;;;;5087049;28;20766;-78
2022/10/14 11:41:58;;;;;;;32.10;17.50;;;14.00;99.90;;;;;;5090239;28;20406;-78
2022/10/14 11:44:29;;;;;;;31.77;17.67;;;14.00;99.90;;;;;;5090236;28;20433;-78
2022/10/14 11:46:58;;;;;;;33.80;17.85;;;13.90;99.90;;;;;;5088637;28;20507;-78
2022/10/14 11:49:27;;;;;;;33.50;17.92;;;13.90;99.90;;;;;;5089027;28;20518;-78
2022/10/14 11:52:06;;;;;;;35.40;18.57;;;13.80;99.90;;;;;;5088628;28;20466;-77
2022/10/14 11:54:36;;;;;;;40.63;20.33;;;13.90;99.90;;;;;;5090348;28;20471;-76
2022/10/14 11:57:03;;;;;;;42.60;20.48;;;13.80;99.90;;;;;;5088214;28;20911;-76
2022/10/14 12:03:09;;;;;;;42.95;19.67;;;13.90;99.90;;;;;;5068486;28;20412;-75
2022/10/14 12:05:40;;;;;;;40.38;16.63;;;13.90;99.90;;;;;;5085064;28;20413;-75
2022/10/14 12:08:08;;;;;;;40.67;17.57;;;13.90;99.90;;;;;;5100125;28;20491;-75
2022/10/14 12:11:03;;;;;;;41.33;17.57;;;13.80;99.90;;;;;;5104495;28;20481;-75
2022/10/14 12:13:40;;;;;;;33.28;15.55;;;13.80;99.90;;;;;;5069887;28;20465;-74
2022/10/14 12:16:12;;;;;;;36.33;16.35;;;13.70;99.90;;;;;;5089752;28;20810;-74
2022/10/14 12:18:38;;;;;;;33.55;16.50;;;13.70;99.90;;;;;;5071443;28;20478;-75
2022/10/14 12:21:36;;;;;;;36.72;16.85;;;13.70;99.90;;;;;;5089267;28;20403;-75
2022/10/14 12:24:13;;;;;;;43.08;17.23;;;13.70;99.90;;;;;;5089127;28;20481;-75
2022/10/14 12:26:49;;;;;;;46.03;20.20;;;13.70;99.90;;;;;;5091818;28;20432;-75
2022/10/14 12:29:20;;;;;;;47.25;19.90;;;13.70;99.90;;;;;;5091148;28;20412;-75
2022/10/14 12:32:02;;;;;;;43.63;19.23;;;13.80;99.90;;;;;;5082500;28;20405;-75
2022/10/14 12:34:34;;;;;;;52.63;20.23;;;13.80;99.90;;;;;;5126074;27;20563;-75
2022/10/14 12:37:21;;;;;;;48.33;19.63;;;13.70;99.90;;;;;;5098110;28;20448;-75
2022/10/14 12:39:47;;;;;;;44.40;18.40;;;13.80;99.90;;;;;;5090053;28;20533;-75
2022/10/14 12:42:14;;;;;;;42.00;17.20;;;13.80;99.90;;;;;;5070474;28;20483;-75
2022/10/14 12:44:54;;;;;;;42.08;17.88;;;13.80;99.90;;;;;;5088439;28;20473;-75
2022/10/14 12:47:22;;;;;;;36.90;16.80;;;13.80;99.90;;;;;;5100812;28;20412;-75
2022/10/14 12:49:52;;;;;;;35.87;16.20;;;13.80;99.90;;;;;;5070882;28;20421;-75
2022/10/14 12:52:40;;;;;;;38.22;17.67;;;13.80;99.90;;;;;;5087596;28;20808;-75
2022/10/14 12:55:17;;;;;;;40.33;19.17;;;13.80;99.90;;;;;;5086660;28;20492;-75